AZU2202 SBRP-SBVC
Flight info
| Callsign | AZU2202 |
|---|---|
| Flight time | 1h 25m |
| Altitude | 37000 |
| Route | VULAD DCT EVPIV |
| Aircraft | E195/M-SDE3GILORVW/S |
Departure
| Time | 2026-05-07 17:43 |
|---|---|
| Airport | Leite Lopes Airport (SBRP) |
Arrival
| Time | 2026-05-07 19:08 |
|---|---|
| Airport | Glauber de Andrade Rocha Airport (SBVC) |
| Time | Latitude | Longitude | Altitude | Speed | Heading |
|---|---|---|---|---|---|
| 2026-05-07 17:28 | -21.13887 | -47.77596 | 1824 ft | 0 kts | 253° |
| 2026-05-07 17:32 | -21.13884 | -47.77587 | 1824 ft | 2 kts | 253° |
| 2026-05-07 17:32 | -21.13882 | -47.77578 | 1824 ft | 0 kts | 253° |
| 2026-05-07 17:33 | -21.13875 | -47.77564 | 1824 ft | 2 kts | 220° |
| 2026-05-07 17:33 | -21.13862 | -47.77557 | 1824 ft | 2 kts | 191° |
| 2026-05-07 17:33 | -21.13851 | -47.77556 | 1824 ft | 0 kts | 167° |
| 2026-05-07 17:33 | -21.13844 | -47.77559 | 1824 ft | 1 kts | 163° |
| 2026-05-07 17:34 | -21.13843 | -47.77559 | 1824 ft | 0 kts | 163° |
| 2026-05-07 17:36 | -21.13845 | -47.77558 | 1823 ft | 1 kts | 163° |
| 2026-05-07 17:37 | -21.13863 | -47.77550 | 1824 ft | 3 kts | 140° |
| 2026-05-07 17:37 | -21.13869 | -47.77529 | 1824 ft | 2 kts | 96° |
| 2026-05-07 17:37 | -21.13868 | -47.77509 | 1824 ft | 2 kts | 79° |
| 2026-05-07 17:37 | -21.13862 | -47.77488 | 1824 ft | 3 kts | 72° |
| 2026-05-07 17:38 | -21.13860 | -47.77455 | 1824 ft | 5 kts | 119° |
| 2026-05-07 17:38 | -21.13895 | -47.77427 | 1824 ft | 7 kts | 158° |
| 2026-05-07 17:38 | -21.13947 | -47.77409 | 1825 ft | 8 kts | 163° |
| 2026-05-07 17:38 | -21.14012 | -47.77388 | 1825 ft | 10 kts | 163° |
| 2026-05-07 17:39 | -21.14089 | -47.77365 | 1826 ft | 12 kts | 164° |
| 2026-05-07 17:39 | -21.14180 | -47.77337 | 1827 ft | 14 kts | 164° |
| 2026-05-07 17:39 | -21.14253 | -47.77312 | 1827 ft | 6 kts | 149° |
| 2026-05-07 17:39 | -21.14283 | -47.77274 | 1828 ft | 6 kts | 110° |
| 2026-05-07 17:40 | -21.14292 | -47.77240 | 1828 ft | 3 kts | 101° |
| 2026-05-07 17:40 | -21.14292 | -47.77235 | 1828 ft | 0 kts | 101° |
| 2026-05-07 17:40 | -21.14293 | -47.77235 | 1828 ft | 0 kts | 101° |
| 2026-05-07 17:41 | -21.14294 | -47.77229 | 1828 ft | 1 kts | 100° |
| 2026-05-07 17:41 | -21.14297 | -47.77210 | 1828 ft | 3 kts | 104° |
| 2026-05-07 17:41 | -21.14303 | -47.77180 | 1828 ft | 5 kts | 102° |
| 2026-05-07 17:41 | -21.14304 | -47.77139 | 1828 ft | 4 kts | 54° |
| 2026-05-07 17:42 | -21.14280 | -47.77132 | 1828 ft | 4 kts | 352° |
| 2026-05-07 17:42 | -21.14268 | -47.77135 | 1828 ft | 0 kts | 343° |
| 2026-05-07 17:42 | -21.14137 | -47.77176 | 1827 ft | 48 kts | 345° |
| 2026-05-07 17:42 | -21.13619 | -47.77341 | 1823 ft | 103 kts | 341° |
| 2026-05-07 17:43 | -21.12769 | -47.77614 | 1818 ft | 147 kts | 344° |
| 2026-05-07 17:43 | -21.11749 | -47.77946 | 2072 ft | 154 kts | 345° |
| 2026-05-07 17:43 | -21.10731 | -47.78345 | 2485 ft | 156 kts | 338° |
| 2026-05-07 17:43 | -21.09561 | -47.78761 | 2214 ft | 205 kts | 346° |
| 2026-05-07 17:44 | -21.08042 | -47.79193 | 2224 ft | 234 kts | 346° |
| 2026-05-07 17:44 | -21.06531 | -47.79706 | 3070 ft | 223 kts | 340° |
| 2026-05-07 17:44 | -21.05141 | -47.80404 | 3753 ft | 226 kts | 333° |
| 2026-05-07 17:44 | -21.03702 | -47.80816 | 4538 ft | 215 kts | 8° |
| 2026-05-07 17:45 | -21.02415 | -47.80107 | 5190 ft | 217 kts | 48° |
| 2026-05-07 17:45 | -21.01907 | -47.78581 | 5775 ft | 229 kts | 88° |
| 2026-05-07 17:45 | -21.02480 | -47.76946 | 6187 ft | 252 kts | 126° |
| 2026-05-07 17:45 | -21.03987 | -47.75930 | 6610 ft | 269 kts | 165° |
| 2026-05-07 17:46 | -21.05855 | -47.76039 | 7119 ft | 275 kts | 202° |
| 2026-05-07 17:46 | -21.07342 | -47.77259 | 7661 ft | 276 kts | 238° |
| 2026-05-07 17:46 | -21.08002 | -47.79223 | 7909 ft | 287 kts | 274° |
| 2026-05-07 17:46 | -21.07518 | -47.81242 | 8372 ft | 286 kts | 306° |
| 2026-05-07 17:47 | -21.06073 | -47.82634 | 9019 ft | 281 kts | 339° |
| 2026-05-07 17:47 | -21.04187 | -47.82925 | 9739 ft | 277 kts | 11° |
| 2026-05-07 17:47 | -21.02468 | -47.82058 | 10365 ft | 281 kts | 43° |
| 2026-05-07 17:47 | -21.01446 | -47.80253 | 10961 ft | 289 kts | 75° |
| 2026-05-07 17:48 | -21.01481 | -47.78101 | 11481 ft | 303 kts | 105° |
| 2026-05-07 17:48 | -21.02602 | -47.76160 | 11932 ft | 318 kts | 136° |
| 2026-05-07 17:48 | -21.04573 | -47.74994 | 12338 ft | 333 kts | 165° |
| 2026-05-07 17:48 | -21.06889 | -47.74959 | 12761 ft | 343 kts | 194° |
| 2026-05-07 17:49 | -21.09045 | -47.76111 | 13215 ft | 349 kts | 223° |
| 2026-05-07 17:49 | -21.10472 | -47.78198 | 13735 ft | 350 kts | 251° |
| 2026-05-07 17:49 | -21.10850 | -47.80714 | 14301 ft | 347 kts | 278° |
| 2026-05-07 17:49 | -21.10111 | -47.83143 | 14880 ft | 344 kts | 305° |
| 2026-05-07 17:50 | -21.08439 | -47.84907 | 15420 ft | 341 kts | 332° |
| 2026-05-07 17:50 | -21.06209 | -47.85651 | 15931 ft | 340 kts | 359° |
| 2026-05-07 17:50 | -21.03879 | -47.85205 | 16418 ft | 342 kts | 26° |
| 2026-05-07 17:50 | -21.02016 | -47.83678 | 16880 ft | 346 kts | 52° |
| 2026-05-07 17:51 | -21.01010 | -47.81467 | 17335 ft | 350 kts | 77° |
| 2026-05-07 17:51 | -21.01023 | -47.78877 | 17811 ft | 356 kts | 103° |
| 2026-05-07 17:51 | -21.02133 | -47.76509 | 18283 ft | 363 kts | 130° |
| 2026-05-07 17:51 | -21.04154 | -47.74853 | 18741 ft | 369 kts | 156° |
| 2026-05-07 17:52 | -21.06626 | -47.74260 | 19138 ft | 366 kts | 179° |
| 2026-05-07 17:52 | -21.09181 | -47.74081 | 19664 ft | 366 kts | 163° |
| 2026-05-07 17:52 | -21.11363 | -47.72846 | 20664 ft | 350 kts | 141° |
| 2026-05-07 17:52 | -21.13016 | -47.71004 | 21395 ft | 345 kts | 121° |
| 2026-05-07 17:53 | -21.13757 | -47.68554 | 21716 ft | 352 kts | 87° |
| 2026-05-07 17:53 | -21.12926 | -47.66146 | 21948 ft | 355 kts | 49° |
| 2026-05-07 17:53 | -21.10967 | -47.64646 | 22433 ft | 349 kts | 19° |
| 2026-05-07 17:53 | -21.08597 | -47.63908 | 22617 ft | 359 kts | 14° |
| 2026-05-07 17:54 | -21.06138 | -47.63184 | 22657 ft | 375 kts | 14° |
| 2026-05-07 17:54 | -21.03557 | -47.62423 | 22711 ft | 390 kts | 14° |
| 2026-05-07 17:54 | -21.00918 | -47.61646 | 22929 ft | 399 kts | 14° |
| 2026-05-07 17:54 | -20.98218 | -47.60851 | 23367 ft | 402 kts | 14° |
| 2026-05-07 17:55 | -20.95504 | -47.60051 | 23873 ft | 403 kts | 14° |
| 2026-05-07 17:55 | -20.92807 | -47.59257 | 24314 ft | 405 kts | 14° |
| 2026-05-07 17:55 | -20.90064 | -47.58430 | 24741 ft | 408 kts | 19° |
| 2026-05-07 17:55 | -20.87546 | -47.56963 | 25066 ft | 415 kts | 37° |
| 2026-05-07 17:56 | -20.85363 | -47.54956 | 25451 ft | 419 kts | 43° |
| 2026-05-07 17:56 | -20.83246 | -47.52773 | 25862 ft | 421 kts | 45° |
| 2026-05-07 17:56 | -20.81184 | -47.50570 | 26274 ft | 423 kts | 45° |
| 2026-05-07 17:56 | -20.79112 | -47.48334 | 26649 ft | 426 kts | 45° |
| 2026-05-07 17:57 | -20.77015 | -47.46062 | 27026 ft | 429 kts | 45° |
| 2026-05-07 17:57 | -20.75614 | -47.44544 | 27246 ft | 432 kts | 45° |
| 2026-05-07 17:57 | -20.72817 | -47.41514 | 27726 ft | 435 kts | 45° |
| 2026-05-07 17:57 | -20.70678 | -47.39197 | 28083 ft | 438 kts | 45° |
| 2026-05-07 17:58 | -20.68548 | -47.36890 | 28468 ft | 440 kts | 45° |
| 2026-05-07 17:58 | -20.66382 | -47.34547 | 28823 ft | 442 kts | 45° |
| 2026-05-07 17:58 | -20.64218 | -47.32206 | 29142 ft | 445 kts | 45° |
| 2026-05-07 17:58 | -20.62041 | -47.29852 | 29435 ft | 449 kts | 45° |
| 2026-05-07 17:59 | -20.59818 | -47.27457 | 29737 ft | 452 kts | 45° |
| 2026-05-07 17:59 | -20.57594 | -47.25058 | 30068 ft | 455 kts | 45° |
| 2026-05-07 17:59 | -20.55363 | -47.22651 | 30393 ft | 457 kts | 45° |
| 2026-05-07 17:59 | -20.53136 | -47.20246 | 30714 ft | 460 kts | 45° |
| 2026-05-07 18:00 | -20.50879 | -47.17811 | 31025 ft | 462 kts | 46° |
| 2026-05-07 18:00 | -20.48629 | -47.15384 | 31320 ft | 465 kts | 45° |
| 2026-05-07 18:00 | -20.46328 | -47.12904 | 31627 ft | 468 kts | 46° |
| 2026-05-07 18:00 | -20.44042 | -47.10442 | 31975 ft | 469 kts | 46° |
| 2026-05-07 18:01 | -20.41746 | -47.07968 | 32402 ft | 468 kts | 46° |
| 2026-05-07 18:01 | -20.39461 | -47.05510 | 32849 ft | 466 kts | 46° |
| 2026-05-07 18:01 | -20.37200 | -47.03076 | 33300 ft | 465 kts | 46° |
| 2026-05-07 18:01 | -20.34934 | -47.00639 | 33739 ft | 464 kts | 46° |
| 2026-05-07 18:02 | -20.30368 | -46.95731 | 34384 ft | 467 kts | 46° |
| 2026-05-07 18:02 | -20.28098 | -46.93293 | 34667 ft | 469 kts | 46° |
| 2026-05-07 18:02 | -20.25793 | -46.90818 | 34959 ft | 471 kts | 46° |
| 2026-05-07 18:03 | -20.23472 | -46.88327 | 35266 ft | 472 kts | 46° |
| 2026-05-07 18:03 | -20.21208 | -46.85899 | 35597 ft | 473 kts | 46° |
| 2026-05-07 18:03 | -20.18935 | -46.83463 | 35913 ft | 474 kts | 46° |
| 2026-05-07 18:03 | -20.17706 | -46.82146 | 36066 ft | 474 kts | 46° |
| 2026-05-07 18:04 | -20.15386 | -46.79659 | 36383 ft | 475 kts | 46° |
| 2026-05-07 18:04 | -20.13026 | -46.77131 | 36697 ft | 476 kts | 46° |
| 2026-05-07 18:04 | -20.10708 | -46.74651 | 36972 ft | 477 kts | 46° |
| 2026-05-07 18:04 | -20.08370 | -46.72149 | 37240 ft | 478 kts | 46° |
| 2026-05-07 18:05 | -20.06008 | -46.69622 | 37518 ft | 479 kts | 46° |
| 2026-05-07 18:05 | -20.03656 | -46.67107 | 37735 ft | 482 kts | 46° |
| 2026-05-07 18:05 | -20.01288 | -46.64578 | 37923 ft | 479 kts | 46° |
| 2026-05-07 18:06 | -19.96534 | -46.59501 | 37939 ft | 491 kts | 46° |
| 2026-05-07 18:06 | -19.91676 | -46.54318 | 37938 ft | 503 kts | 46° |
| 2026-05-07 18:07 | -19.86663 | -46.48975 | 37914 ft | 510 kts | 46° |
| 2026-05-07 18:07 | -19.81657 | -46.43644 | 37909 ft | 508 kts | 46° |
| 2026-05-07 18:08 | -19.76678 | -46.38349 | 37892 ft | 507 kts | 46° |
| 2026-05-07 18:08 | -19.71677 | -46.33033 | 37883 ft | 506 kts | 46° |
| 2026-05-07 18:09 | -19.66692 | -46.27739 | 37881 ft | 507 kts | 46° |
| 2026-05-07 18:09 | -19.61704 | -46.22448 | 37882 ft | 507 kts | 46° |
| 2026-05-07 18:10 | -19.56709 | -46.17154 | 37885 ft | 508 kts | 46° |
| 2026-05-07 18:10 | -19.51750 | -46.11903 | 37889 ft | 507 kts | 46° |
| 2026-05-07 18:11 | -19.46750 | -46.06613 | 37887 ft | 507 kts | 46° |
| 2026-05-07 18:11 | -19.41756 | -46.01335 | 37890 ft | 507 kts | 46° |
| 2026-05-07 18:12 | -19.36775 | -45.96075 | 37889 ft | 506 kts | 46° |
| 2026-05-07 18:12 | -19.31770 | -45.90794 | 37886 ft | 506 kts | 46° |
| 2026-05-07 18:13 | -19.26793 | -45.85549 | 37884 ft | 506 kts | 46° |
| 2026-05-07 18:13 | -19.21799 | -45.80290 | 37879 ft | 507 kts | 46° |
| 2026-05-07 18:14 | -19.16778 | -45.75008 | 37874 ft | 507 kts | 46° |
| 2026-05-07 18:14 | -19.11805 | -45.69780 | 37870 ft | 506 kts | 46° |
| 2026-05-07 18:15 | -19.06814 | -45.64538 | 37866 ft | 506 kts | 46° |
| 2026-05-07 18:15 | -19.01819 | -45.59296 | 37861 ft | 506 kts | 46° |
| 2026-05-07 18:16 | -18.96807 | -45.54044 | 37855 ft | 507 kts | 46° |
| 2026-05-07 18:16 | -18.91824 | -45.48825 | 37850 ft | 506 kts | 46° |
| 2026-05-07 18:17 | -18.86792 | -45.43558 | 37837 ft | 507 kts | 46° |
| 2026-05-07 18:17 | -18.81812 | -45.38352 | 37839 ft | 508 kts | 46° |
| 2026-05-07 18:18 | -18.76784 | -45.33099 | 37827 ft | 510 kts | 46° |
| 2026-05-07 18:18 | -18.71754 | -45.27850 | 37829 ft | 507 kts | 46° |
| 2026-05-07 18:19 | -18.66750 | -45.22632 | 37825 ft | 507 kts | 46° |
| 2026-05-07 18:19 | -18.64199 | -45.19973 | 37116 ft | 514 kts | 46° |
| 2026-05-07 18:19 | -18.61709 | -45.17381 | 37126 ft | 498 kts | 46° |
| 2026-05-07 18:20 | -18.56775 | -45.12243 | 37073 ft | 504 kts | 46° |
| 2026-05-07 18:20 | -18.51780 | -45.07048 | 37078 ft | 506 kts | 46° |
| 2026-05-07 18:21 | -18.46756 | -45.01827 | 37081 ft | 506 kts | 46° |
| 2026-05-07 18:21 | -18.41756 | -44.96636 | 37081 ft | 506 kts | 46° |
| 2026-05-07 18:22 | -18.36753 | -44.91447 | 37083 ft | 507 kts | 46° |
| 2026-05-07 18:22 | -18.31718 | -44.86229 | 37093 ft | 505 kts | 47° |
| 2026-05-07 18:23 | -18.26723 | -44.81056 | 37094 ft | 505 kts | 47° |
| 2026-05-07 18:23 | -18.21710 | -44.75869 | 37090 ft | 504 kts | 47° |
| 2026-05-07 18:24 | -18.16723 | -44.70714 | 37107 ft | 505 kts | 47° |
| 2026-05-07 18:24 | -18.11714 | -44.65540 | 37108 ft | 506 kts | 47° |
| 2026-05-07 18:25 | -18.06679 | -44.60344 | 37118 ft | 506 kts | 47° |
| 2026-05-07 18:25 | -18.01663 | -44.55172 | 37125 ft | 506 kts | 47° |
| 2026-05-07 18:26 | -17.96625 | -44.49981 | 37136 ft | 504 kts | 47° |
| 2026-05-07 18:26 | -17.91625 | -44.44833 | 37134 ft | 505 kts | 47° |
| 2026-05-07 18:27 | -17.86630 | -44.39695 | 37124 ft | 504 kts | 47° |
| 2026-05-07 18:27 | -17.81574 | -44.34500 | 37129 ft | 504 kts | 46° |
| 2026-05-07 18:28 | -17.76556 | -44.29348 | 37137 ft | 505 kts | 47° |
| 2026-05-07 18:28 | -17.71547 | -44.24209 | 37150 ft | 504 kts | 47° |
| 2026-05-07 18:29 | -17.66555 | -44.19091 | 37140 ft | 504 kts | 47° |
| 2026-05-07 18:29 | -17.61506 | -44.13919 | 37131 ft | 506 kts | 47° |
| 2026-05-07 18:30 | -17.56475 | -44.08771 | 37125 ft | 504 kts | 47° |
| 2026-05-07 18:30 | -17.51459 | -44.03640 | 37115 ft | 505 kts | 47° |
| 2026-05-07 18:31 | -17.46457 | -43.98530 | 37103 ft | 505 kts | 47° |
| 2026-05-07 18:31 | -17.41435 | -43.93403 | 37120 ft | 504 kts | 47° |
| 2026-05-07 18:32 | -17.36405 | -43.88271 | 37130 ft | 506 kts | 47° |
| 2026-05-07 18:32 | -17.31370 | -43.83139 | 37136 ft | 505 kts | 47° |
| 2026-05-07 18:33 | -17.26342 | -43.78019 | 37138 ft | 504 kts | 47° |
| 2026-05-07 18:33 | -17.21334 | -43.72921 | 37137 ft | 505 kts | 47° |
| 2026-05-07 18:34 | -17.16306 | -43.67809 | 37140 ft | 505 kts | 47° |
| 2026-05-07 18:34 | -17.11267 | -43.62690 | 37145 ft | 505 kts | 47° |
| 2026-05-07 18:35 | -17.06229 | -43.57575 | 37152 ft | 505 kts | 47° |
| 2026-05-07 18:35 | -17.01180 | -43.52453 | 37156 ft | 504 kts | 47° |
| 2026-05-07 18:36 | -16.96157 | -43.47361 | 37159 ft | 503 kts | 47° |
| 2026-05-07 18:36 | -16.91122 | -43.42262 | 37154 ft | 504 kts | 47° |
| 2026-05-07 18:37 | -16.86119 | -43.37199 | 37136 ft | 504 kts | 47° |
| 2026-05-07 18:37 | -16.81054 | -43.32076 | 37127 ft | 503 kts | 47° |
| 2026-05-07 18:38 | -16.76036 | -43.27006 | 37121 ft | 504 kts | 47° |
| 2026-05-07 18:38 | -16.71038 | -43.21960 | 37122 ft | 502 kts | 47° |
| 2026-05-07 18:39 | -16.66004 | -43.16881 | 37121 ft | 503 kts | 47° |
| 2026-05-07 18:39 | -16.60961 | -43.11797 | 37124 ft | 502 kts | 47° |
| 2026-05-07 18:40 | -16.55937 | -43.06736 | 37121 ft | 504 kts | 47° |
| 2026-05-07 18:40 | -16.50898 | -43.01664 | 37116 ft | 503 kts | 47° |
| 2026-05-07 18:41 | -16.45869 | -42.96606 | 37119 ft | 503 kts | 48° |
| 2026-05-07 18:41 | -16.40849 | -42.91562 | 37109 ft | 504 kts | 47° |
| 2026-05-07 18:42 | -16.35807 | -42.86498 | 37112 ft | 504 kts | 47° |
| 2026-05-07 18:42 | -16.31171 | -42.81092 | 37124 ft | 494 kts | 62° |
| 2026-05-07 18:43 | -16.27561 | -42.75024 | 37116 ft | 494 kts | 63° |
| 2026-05-07 18:43 | -16.23896 | -42.68980 | 37115 ft | 494 kts | 63° |
| 2026-05-07 18:44 | -16.20216 | -42.62928 | 37112 ft | 494 kts | 62° |
| 2026-05-07 18:44 | -16.16549 | -42.56904 | 37111 ft | 492 kts | 63° |
| 2026-05-07 18:45 | -16.12965 | -42.51023 | 37106 ft | 475 kts | 63° |
| 2026-05-07 18:45 | -16.09443 | -42.45244 | 37117 ft | 474 kts | 63° |
| 2026-05-07 18:45 | -16.07667 | -42.42333 | 36667 ft | 478 kts | 63° |
| 2026-05-07 18:46 | -16.05904 | -42.39445 | 36174 ft | 475 kts | 63° |
| 2026-05-07 18:46 | -16.04127 | -42.36534 | 35632 ft | 472 kts | 63° |
| 2026-05-07 18:46 | -16.02378 | -42.33671 | 35112 ft | 470 kts | 63° |
| 2026-05-07 18:46 | -16.00617 | -42.30789 | 34590 ft | 469 kts | 63° |
| 2026-05-07 18:47 | -15.98882 | -42.27950 | 34062 ft | 471 kts | 63° |
| 2026-05-07 18:47 | -15.97125 | -42.25077 | 33546 ft | 472 kts | 63° |
| 2026-05-07 18:47 | -15.95366 | -42.22201 | 33028 ft | 472 kts | 63° |
| 2026-05-07 18:47 | -15.93608 | -42.19329 | 32526 ft | 471 kts | 63° |
| 2026-05-07 18:48 | -15.91858 | -42.16469 | 32024 ft | 473 kts | 62° |
| 2026-05-07 18:48 | -15.90087 | -42.13580 | 31508 ft | 473 kts | 62° |
| 2026-05-07 18:48 | -15.88323 | -42.10699 | 30970 ft | 473 kts | 62° |
| 2026-05-07 18:48 | -15.86572 | -42.07843 | 30459 ft | 473 kts | 62° |
| 2026-05-07 18:49 | -15.84801 | -42.04956 | 29940 ft | 468 kts | 62° |
| 2026-05-07 18:49 | -15.83066 | -42.02127 | 29430 ft | 462 kts | 62° |
| 2026-05-07 18:49 | -15.81352 | -41.99335 | 28917 ft | 458 kts | 62° |
| 2026-05-07 18:49 | -15.79658 | -41.96575 | 28421 ft | 454 kts | 62° |
| 2026-05-07 18:50 | -15.77970 | -41.93825 | 27925 ft | 449 kts | 62° |
| 2026-05-07 18:50 | -15.76302 | -41.91111 | 27420 ft | 444 kts | 62° |
| 2026-05-07 18:50 | -15.74660 | -41.88438 | 26934 ft | 440 kts | 61° |
| 2026-05-07 18:50 | -15.73029 | -41.85786 | 26446 ft | 436 kts | 61° |
| 2026-05-07 18:51 | -15.71396 | -41.83130 | 25965 ft | 432 kts | 61° |
| 2026-05-07 18:51 | -15.69786 | -41.80514 | 25485 ft | 427 kts | 61° |
| 2026-05-07 18:51 | -15.68209 | -41.77951 | 25018 ft | 424 kts | 61° |
| 2026-05-07 18:51 | -15.66619 | -41.75369 | 24547 ft | 420 kts | 60° |
| 2026-05-07 18:52 | -15.65058 | -41.72834 | 24083 ft | 415 kts | 60° |
| 2026-05-07 18:52 | -15.63526 | -41.70347 | 23627 ft | 411 kts | 60° |
| 2026-05-07 18:52 | -15.61993 | -41.67860 | 23176 ft | 408 kts | 60° |
| 2026-05-07 18:52 | -15.60469 | -41.65389 | 22728 ft | 404 kts | 60° |
| 2026-05-07 18:53 | -15.58949 | -41.62924 | 22273 ft | 400 kts | 60° |
| 2026-05-07 18:53 | -15.57470 | -41.60525 | 21833 ft | 397 kts | 60° |
| 2026-05-07 18:53 | -15.55989 | -41.58126 | 21400 ft | 394 kts | 60° |
| 2026-05-07 18:53 | -15.54522 | -41.55750 | 20966 ft | 391 kts | 60° |
| 2026-05-07 18:54 | -15.53052 | -41.53368 | 20531 ft | 387 kts | 59° |
| 2026-05-07 18:54 | -15.51611 | -41.51036 | 20105 ft | 384 kts | 60° |
| 2026-05-07 18:54 | -15.50192 | -41.48739 | 19684 ft | 380 kts | 59° |
| 2026-05-07 18:54 | -15.48760 | -41.46421 | 19263 ft | 377 kts | 59° |
| 2026-05-07 18:55 | -15.47355 | -41.44148 | 18851 ft | 374 kts | 59° |
| 2026-05-07 18:55 | -15.45951 | -41.41880 | 18443 ft | 371 kts | 59° |
| 2026-05-07 18:55 | -15.44581 | -41.39664 | 18035 ft | 368 kts | 59° |
| 2026-05-07 18:55 | -15.43199 | -41.37431 | 17631 ft | 365 kts | 59° |
| 2026-05-07 18:56 | -15.41834 | -41.35225 | 17239 ft | 362 kts | 59° |
| 2026-05-07 18:56 | -15.40513 | -41.33093 | 16854 ft | 359 kts | 59° |
| 2026-05-07 18:56 | -15.39182 | -41.30942 | 16460 ft | 356 kts | 59° |
| 2026-05-07 18:56 | -15.37885 | -41.28849 | 16080 ft | 353 kts | 59° |
| 2026-05-07 18:57 | -15.36689 | -41.26918 | 15737 ft | 350 kts | 58° |
| 2026-05-07 18:57 | -15.35370 | -41.24791 | 15341 ft | 348 kts | 58° |
| 2026-05-07 18:57 | -15.34071 | -41.22696 | 14963 ft | 345 kts | 58° |
| 2026-05-07 18:57 | -15.32781 | -41.20615 | 14585 ft | 343 kts | 58° |
| 2026-05-07 18:58 | -15.31502 | -41.18554 | 14210 ft | 340 kts | 58° |
| 2026-05-07 18:58 | -15.30221 | -41.16489 | 13841 ft | 339 kts | 58° |
| 2026-05-07 18:58 | -15.28965 | -41.14465 | 13470 ft | 337 kts | 58° |
| 2026-05-07 18:58 | -15.27692 | -41.12414 | 13086 ft | 333 kts | 58° |
| 2026-05-07 18:59 | -15.26445 | -41.10407 | 12725 ft | 331 kts | 58° |
| 2026-05-07 18:59 | -15.25202 | -41.08406 | 12362 ft | 330 kts | 58° |
| 2026-05-07 18:59 | -15.23980 | -41.06438 | 12004 ft | 327 kts | 58° |
| 2026-05-07 18:59 | -15.22756 | -41.04470 | 11642 ft | 322 kts | 58° |
| 2026-05-07 19:00 | -15.21555 | -41.02538 | 11283 ft | 315 kts | 58° |
| 2026-05-07 19:00 | -15.20377 | -41.00644 | 10936 ft | 307 kts | 58° |
| 2026-05-07 19:00 | -15.19244 | -40.98821 | 10596 ft | 299 kts | 58° |
| 2026-05-07 19:00 | -15.18138 | -40.97044 | 10268 ft | 291 kts | 58° |
| 2026-05-07 19:01 | -15.17045 | -40.95288 | 9945 ft | 284 kts | 58° |
| 2026-05-07 19:01 | -15.16002 | -40.93612 | 9581 ft | 274 kts | 58° |
| 2026-05-07 19:01 | -15.15005 | -40.92010 | 9300 ft | 255 kts | 58° |
| 2026-05-07 19:01 | -15.14075 | -40.90517 | 9038 ft | 239 kts | 58° |
| 2026-05-07 19:02 | -15.13181 | -40.89082 | 8835 ft | 232 kts | 58° |
| 2026-05-07 19:02 | -15.12309 | -40.87681 | 8561 ft | 231 kts | 58° |
| 2026-05-07 19:02 | -15.11440 | -40.86286 | 8304 ft | 229 kts | 58° |
| 2026-05-07 19:02 | -15.10585 | -40.84913 | 8050 ft | 229 kts | 58° |
| 2026-05-07 19:03 | -15.09721 | -40.83527 | 7798 ft | 228 kts | 58° |
| 2026-05-07 19:03 | -15.08588 | -40.82367 | 7592 ft | 229 kts | 39° |
| 2026-05-07 19:03 | -15.07327 | -40.81408 | 7451 ft | 220 kts | 39° |
| 2026-05-07 19:03 | -15.06116 | -40.80490 | 7161 ft | 216 kts | 39° |
| 2026-05-07 19:04 | -15.04913 | -40.79581 | 6901 ft | 210 kts | 39° |
| 2026-05-07 19:04 | -15.03745 | -40.78700 | 6659 ft | 204 kts | 40° |
| 2026-05-07 19:04 | -15.02598 | -40.77853 | 6420 ft | 199 kts | 32° |
| 2026-05-07 19:04 | -15.01239 | -40.77668 | 6215 ft | 204 kts | 346° |
| 2026-05-07 19:05 | -15.00064 | -40.78507 | 5929 ft | 214 kts | 310° |
| 2026-05-07 19:05 | -14.99169 | -40.79731 | 5643 ft | 212 kts | 309° |
| 2026-05-07 19:05 | -14.98296 | -40.80943 | 5325 ft | 211 kts | 309° |
| 2026-05-07 19:05 | -14.97424 | -40.82158 | 5019 ft | 209 kts | 309° |
| 2026-05-07 19:06 | -14.96583 | -40.83337 | 4815 ft | 195 kts | 309° |
| 2026-05-07 19:06 | -14.95082 | -40.85459 | 4215 ft | 167 kts | 308° |
| 2026-05-07 19:06 | -14.94416 | -40.86396 | 3938 ft | 156 kts | 308° |
| 2026-05-07 19:07 | -14.93777 | -40.87295 | 3768 ft | 155 kts | 309° |
| 2026-05-07 19:07 | -14.93137 | -40.88193 | 3610 ft | 156 kts | 309° |
| 2026-05-07 19:07 | -14.92493 | -40.89097 | 3431 ft | 158 kts | 308° |
| 2026-05-07 19:07 | -14.91860 | -40.90037 | 3083 ft | 158 kts | 306° |
| 2026-05-07 19:08 | -14.91219 | -40.90918 | 2943 ft | 152 kts | 310° |
| 2026-05-07 19:08 | -14.90621 | -40.91715 | 2933 ft | 117 kts | 307° |
| 2026-05-07 19:08 | -14.90288 | -40.92180 | 2933 ft | 38 kts | 304° |
| 2026-05-07 19:08 | -14.90239 | -40.92246 | 2933 ft | 2 kts | 20° |
| 2026-05-07 19:09 | -14.90237 | -40.92237 | 2933 ft | 0 kts | 119° |
| 2026-05-07 19:09 | -14.90237 | -40.92238 | 2933 ft | 0 kts | 119° |
| 2026-05-07 19:09 | -14.90244 | -40.92227 | 2933 ft | 4 kts | 128° |
| 2026-05-07 19:09 | -14.90280 | -40.92185 | 2933 ft | 11 kts | 133° |
| 2026-05-07 19:10 | -14.90329 | -40.92117 | 2933 ft | 12 kts | 118° |
| 2026-05-07 19:10 | -14.90376 | -40.92044 | 2933 ft | 12 kts | 126° |
| 2026-05-07 19:10 | -14.90428 | -40.91972 | 2932 ft | 12 kts | 122° |
| 2026-05-07 19:10 | -14.90480 | -40.91899 | 2932 ft | 12 kts | 130° |
| 2026-05-07 19:11 | -14.90540 | -40.91828 | 2932 ft | 12 kts | 127° |
| 2026-05-07 19:11 | -14.90593 | -40.91753 | 2932 ft | 13 kts | 127° |
| 2026-05-07 19:11 | -14.90648 | -40.91676 | 2932 ft | 13 kts | 126° |
| 2026-05-07 19:11 | -14.90694 | -40.91627 | 2932 ft | 7 kts | 159° |
| 2026-05-07 19:12 | -14.90742 | -40.91636 | 2932 ft | 7 kts | 214° |
| 2026-05-07 19:12 | -14.90783 | -40.91668 | 2932 ft | 7 kts | 218° |
| 2026-05-07 19:12 | -14.90819 | -40.91696 | 2932 ft | 5 kts | 217° |
| 2026-05-07 19:12 | -14.90850 | -40.91720 | 2932 ft | 4 kts | 209° |
| 2026-05-07 19:13 | -14.90876 | -40.91739 | 2932 ft | 5 kts | 220° |
| 2026-05-07 19:13 | -14.90899 | -40.91758 | 2932 ft | 4 kts | 216° |
| 2026-05-07 19:13 | -14.90910 | -40.91766 | 2932 ft | 1 kts | 215° |
| 2026-05-07 19:13 | -14.90919 | -40.91772 | 2932 ft | 1 kts | 215° |
| 2026-05-07 19:14 | -14.90920 | -40.91773 | 2932 ft | 0 kts | 215° |